sensor_id;sensor_type;location;lat;lon;timestamp;pressure;altitude;pressure_sealevel;temperature;humidity
46710;BME280;32442;51.514;-0.178;2022-10-31T00:01:44;101472.22;;;21.76;63.94
46710;BME280;32442;51.514;-0.178;2022-10-31T00:04:11;101466.03;;;21.73;63.96
46710;BME280;32442;51.514;-0.178;2022-10-31T00:06:38;101471.66;;;21.73;64.19
46710;BME280;32442;51.514;-0.178;2022-10-31T00:09:05;101470.81;;;21.73;64.36
46710;BME280;32442;51.514;-0.178;2022-10-31T00:11:32;101473.63;;;21.73;64.08
46710;BME280;32442;51.514;-0.178;2022-10-31T00:13:59;101477.59;;;21.72;64.08
46710;BME280;32442;51.514;-0.178;2022-10-31T00:16:27;101479.25;;;21.73;64.22
46710;BME280;32442;51.514;-0.178;2022-10-31T00:18:56;101471.13;;;21.71;64.26
46710;BME280;32442;51.514;-0.178;2022-10-31T00:21:23;101478.44;;;21.72;64.31
46710;BME280;32442;51.514;-0.178;2022-10-31T00:23:50;101479.56;;;21.71;64.58
46710;BME280;32442;51.514;-0.178;2022-10-31T00:26:18;101484.06;;;21.72;64.68
46710;BME280;32442;51.514;-0.178;2022-10-31T00:28:45;101475.09;;;21.70;64.76
46710;BME280;32442;51.514;-0.178;2022-10-31T00:31:12;101469.75;;;21.69;64.88
46710;BME280;32442;51.514;-0.178;2022-10-31T00:33:39;101474.25;;;21.70;64.80
46710;BME280;32442;51.514;-0.178;2022-10-31T00:36:07;101475.38;;;21.69;65.08
46710;BME280;32442;51.514;-0.178;2022-10-31T00:38:34;101481.84;;;21.69;65.18
46710;BME280;32442;51.514;-0.178;2022-10-31T00:41:01;101479.66;;;21.66;65.19
46710;BME280;32442;51.514;-0.178;2022-10-31T00:43:28;101476.53;;;21.68;64.94
46710;BME280;32442;51.514;-0.178;2022-10-31T00:45:55;101474.03;;;21.66;64.91
46710;BME280;32442;51.514;-0.178;2022-10-31T00:48:22;101476.00;;;21.66;65.17
46710;BME280;32442;51.514;-0.178;2022-10-31T00:50:49;101472.34;;;21.65;65.50
46710;BME280;32442;51.514;-0.178;2022-10-31T00:53:16;101469.53;;;21.65;65.39
46710;BME280;32442;51.514;-0.178;2022-10-31T00:55:43;101475.47;;;21.64;65.37
46710;BME280;32442;51.514;-0.178;2022-10-31T00:58:10;101464.22;;;21.64;65.39
46710;BME280;32442;51.514;-0.178;2022-10-31T01:00:39;101469.84;;;21.64;65.36
46710;BME280;32442;51.514;-0.178;2022-10-31T01:03:05;101473.50;;;21.64;65.91
46710;BME280;32442;51.514;-0.178;2022-10-31T01:05:32;101461.69;;;21.62;65.74
46710;BME280;32442;51.514;-0.178;2022-10-31T01:08:00;101471.81;;;21.63;65.93
46710;BME280;32442;51.514;-0.178;2022-10-31T01:10:26;101468.47;;;21.61;65.69
46710;BME280;32442;51.514;-0.178;2022-10-31T01:12:53;101464.50;;;21.62;65.91
46710;BME280;32442;51.514;-0.178;2022-10-31T01:15:21;101466.50;;;21.62;66.11
46710;BME280;32442;51.514;-0.178;2022-10-31T01:17:48;101464.00;;;21.60;65.78
46710;BME280;32442;51.514;-0.178;2022-10-31T01:20:16;101468.47;;;21.61;66.32
46710;BME280;32442;51.514;-0.178;2022-10-31T01:22:43;101469.63;;;21.60;65.97
46710;BME280;32442;51.514;-0.178;2022-10-31T01:25:10;101458.66;;;21.59;66.58
46710;BME280;32442;51.514;-0.178;2022-10-31T01:27:37;101465.97;;;21.60;66.58
46710;BME280;32442;51.514;-0.178;2022-10-31T01:30:04;101460.13;;;21.56;66.27
46710;BME280;32442;51.514;-0.178;2022-10-31T01:32:32;101461.47;;;21.59;66.46
46710;BME280;32442;51.514;-0.178;2022-10-31T01:34:59;101463.75;;;21.57;66.57
46710;BME280;32442;51.514;-0.178;2022-10-31T01:37:26;101462.94;;;21.56;66.60
46710;BME280;32442;51.514;-0.178;2022-10-31T01:39:53;101456.97;;;21.58;66.82
46710;BME280;32442;51.514;-0.178;2022-10-31T01:42:21;101453.66;;;21.56;66.69
46710;BME280;32442;51.514;-0.178;2022-10-31T01:44:52;101462.94;;;21.56;66.81
46710;BME280;32442;51.514;-0.178;2022-10-31T01:47:20;101459.78;;;21.58;66.36
46710;BME280;32442;51.514;-0.178;2022-10-31T01:54:46;101450.84;;;21.56;66.48
46710;BME280;32442;51.514;-0.178;2022-10-31T01:57:14;101452.25;;;21.53;66.72
46710;BME280;32442;51.514;-0.178;2022-10-31T01:59:43;101451.13;;;21.54;66.79
46710;BME280;32442;51.514;-0.178;2022-10-31T02:02:12;101456.75;;;21.54;66.82
46710;BME280;32442;51.514;-0.178;2022-10-31T02:04:40;101459.56;;;21.54;66.89
46710;BME280;32442;51.514;-0.178;2022-10-31T02:07:09;101449.44;;;21.53;67.27
46710;BME280;32442;51.514;-0.178;2022-10-31T02:09:37;101450.28;;;21.54;67.29
46710;BME280;32442;51.514;-0.178;2022-10-31T02:12:04;101446.34;;;21.55;67.28
46710;BME280;32442;51.514;-0.178;2022-10-31T02:14:32;101444.66;;;21.54;67.39
46710;BME280;32442;51.514;-0.178;2022-10-31T02:17:00;101444.66;;;21.54;67.43
46710;BME280;32442;51.514;-0.178;2022-10-31T02:19:30;101444.66;;;21.54;67.67
46710;BME280;32442;51.514;-0.178;2022-10-31T02:22:02;101440.22;;;21.53;67.80
46710;BME280;32442;51.514;-0.178;2022-10-31T02:27:02;101443.03;;;21.53;67.69
46710;BME280;32442;51.514;-0.178;2022-10-31T02:32:02;101437.41;;;21.53;67.90
46710;BME280;32442;51.514;-0.178;2022-10-31T02:36:59;101440.22;;;21.53;67.88
46710;BME280;32442;51.514;-0.178;2022-10-31T02:39:31;101439.38;;;21.52;67.97
46710;BME280;32442;51.514;-0.178;2022-10-31T02:51:58;101430.09;;;21.52;68.58
46710;BME280;32442;51.514;-0.178;2022-10-31T02:54:26;101434.03;;;21.51;68.07
46710;BME280;32442;51.514;-0.178;2022-10-31T02:56:55;101424.75;;;21.50;68.33
46710;BME280;32442;51.514;-0.178;2022-10-31T02:59:24;101421.13;;;21.50;68.73
46710;BME280;32442;51.514;-0.178;2022-10-31T03:07:00;101416.31;;;21.50;68.55
46710;BME280;32442;51.514;-0.178;2022-10-31T03:14:31;101419.44;;;21.49;68.73
46710;BME280;32442;51.514;-0.178;2022-10-31T03:17:03;101418.63;;;21.48;68.74
46710;BME280;32442;51.514;-0.178;2022-10-31T03:19:34;101421.44;;;21.48;68.23
46710;BME280;32442;51.514;-0.178;2022-10-31T03:24:35;101417.25;;;21.46;68.49
46710;BME280;32442;51.514;-0.178;2022-10-31T03:27:02;101409.09;;;21.44;68.53
46710;BME280;32442;51.514;-0.178;2022-10-31T03:29:31;101412.75;;;21.45;68.63
46710;BME280;32442;51.514;-0.178;2022-10-31T03:32:00;101414.72;;;21.44;68.62
46710;BME280;32442;51.514;-0.178;2022-10-31T03:34:28;101402.97;;;21.42;68.97
46710;BME280;32442;51.514;-0.178;2022-10-31T03:36:57;101408.28;;;21.44;68.54
46710;BME280;32442;51.514;-0.178;2022-10-31T03:39:25;101413.91;;;21.44;69.11
46710;BME280;32442;51.514;-0.178;2022-10-31T03:41:54;101410.25;;;21.43;68.83
46710;BME280;32442;51.514;-0.178;2022-10-31T03:44:23;101406.63;;;21.43;68.67
46710;BME280;32442;51.514;-0.178;2022-10-31T03:46:50;101406.91;;;21.41;68.83
46710;BME280;32442;51.514;-0.178;2022-10-31T03:49:17;101404.94;;;21.42;68.70
46710;BME280;32442;51.514;-0.178;2022-10-31T04:01:47;101408.88;;;21.41;69.08
46710;BME280;32442;51.514;-0.178;2022-10-31T04:04:15;101405.00;;;21.37;69.35
46710;BME280;32442;51.514;-0.178;2022-10-31T04:06:43;101407.81;;;21.37;69.40
46710;BME280;32442;51.514;-0.178;2022-10-31T04:09:11;101410.00;;;21.40;68.94
46710;BME280;32442;51.514;-0.178;2022-10-31T04:11:42;101417.63;;;21.39;69.31
46710;BME280;32442;51.514;-0.178;2022-10-31T04:14:11;101410.63;;;21.37;69.41
46710;BME280;32442;51.514;-0.178;2022-10-31T04:16:40;101408.94;;;21.36;68.91
46710;BME280;32442;51.514;-0.178;2022-10-31T04:19:09;101408.09;;;21.35;68.99
46710;BME280;32442;51.514;-0.178;2022-10-31T04:21:36;101402.47;;;21.35;68.94
46710;BME280;32442;51.514;-0.178;2022-10-31T04:24:02;101400.84;;;21.34;69.15
46710;BME280;32442;51.514;-0.178;2022-10-31T04:26:29;101399.66;;;21.35;69.18
46710;BME280;32442;51.514;-0.178;2022-10-31T04:28:56;101400.00;;;21.34;69.28
46710;BME280;32442;51.514;-0.178;2022-10-31T04:31:23;101401.69;;;21.35;69.03
46710;BME280;32442;51.514;-0.178;2022-10-31T04:33:50;101398.03;;;21.34;69.33
46710;BME280;32442;51.514;-0.178;2022-10-31T04:36:17;101394.66;;;21.32;69.49
46710;BME280;32442;51.514;-0.178;2022-10-31T04:38:44;101389.03;;;21.32;69.45
46710;BME280;32442;51.514;-0.178;2022-10-31T04:41:11;101391.03;;;21.32;69.07
46710;BME280;32442;51.514;-0.178;2022-10-31T04:43:37;101391.03;;;21.32;69.28
46710;BME280;32442;51.514;-0.178;2022-10-31T04:46:04;101384.56;;;21.31;69.22
46710;BME280;32442;51.514;-0.178;2022-10-31T04:48:31;101380.09;;;21.30;69.33
46710;BME280;32442;51.514;-0.178;2022-10-31T04:50:59;101377.28;;;21.30;69.74
46710;BME280;32442;51.514;-0.178;2022-10-31T04:53:26;101376.44;;;21.29;69.36
46710;BME280;32442;51.514;-0.178;2022-10-31T04:55:53;101375.91;;;21.27;69.47
46710;BME280;32442;51.514;-0.178;2022-10-31T04:58:20;101376.75;;;21.28;69.33
46710;BME280;32442;51.514;-0.178;2022-10-31T05:00:47;101374.78;;;21.28;69.63
46710;BME280;32442;51.514;-0.178;2022-10-31T05:03:14;101370.28;;;21.27;69.85
46710;BME280;32442;51.514;-0.178;2022-10-31T05:05:41;101377.03;;;21.26;69.44
46710;BME280;32442;51.514;-0.178;2022-10-31T05:08:08;101365.50;;;21.28;69.57
46710;BME280;32442;51.514;-0.178;2022-10-31T05:10:34;101373.09;;;21.27;69.72
46710;BME280;32442;51.514;-0.178;2022-10-31T05:13:02;101374.22;;;21.26;69.51
46710;BME280;32442;51.514;-0.178;2022-10-31T05:15:30;101366.63;;;21.27;69.79
46710;BME280;32442;51.514;-0.178;2022-10-31T05:17:57;101378.72;;;21.27;69.94
46710;BME280;32442;51.514;-0.178;2022-10-31T05:20:26;101368.94;;;21.25;70.15
46710;BME280;32442;51.514;-0.178;2022-10-31T05:22:54;101368.59;;;21.26;70.22
46710;BME280;32442;51.514;-0.178;2022-10-31T05:25:21;101364.94;;;21.26;70.11
46710;BME280;32442;51.514;-0.178;2022-10-31T05:27:49;101362.97;;;21.26;70.45
46710;BME280;32442;51.514;-0.178;2022-10-31T05:30:18;101363.31;;;21.25;70.46
46710;BME280;32442;51.514;-0.178;2022-10-31T05:32:47;101359.34;;;21.26;70.47
46710;BME280;32442;51.514;-0.178;2022-10-31T05:35:16;101351.53;;;21.23;70.37
46710;BME280;32442;51.514;-0.178;2022-10-31T05:37:43;101348.72;;;21.23;70.47
46710;BME280;32442;51.514;-0.178;2022-10-31T05:40:11;101348.72;;;21.23;70.81
46710;BME280;32442;51.514;-0.178;2022-10-31T05:42:39;101355.16;;;21.23;70.80
46710;BME280;32442;51.514;-0.178;2022-10-31T05:45:07;101347.34;;;21.20;71.22
46710;BME280;32442;51.514;-0.178;2022-10-31T05:47:34;101352.66;;;21.22;70.85
46710;BME280;32442;51.514;-0.178;2022-10-31T05:50:01;101351.00;;;21.21;71.07
46710;BME280;32442;51.514;-0.178;2022-10-31T05:52:28;101350.16;;;21.20;71.31
46710;BME280;32442;51.514;-0.178;2022-10-31T05:54:55;101348.19;;;21.21;71.34
46710;BME280;32442;51.514;-0.178;2022-10-31T05:57:22;101345.38;;;21.21;71.50
46710;BME280;32442;51.514;-0.178;2022-10-31T05:59:49;101351.00;;;21.21;71.43
46710;BME280;32442;51.514;-0.178;2022-10-31T06:02:20;101349.31;;;21.20;71.67
46710;BME280;32442;51.514;-0.178;2022-10-31T06:04:48;101338.91;;;21.20;71.63
46710;BME280;32442;51.514;-0.178;2022-10-31T06:07:14;101346.50;;;21.20;71.53
46710;BME280;32442;51.514;-0.178;2022-10-31T06:09:41;101351.00;;;21.21;71.85
46710;BME280;32442;51.514;-0.178;2022-10-31T06:12:08;101338.09;;;21.20;71.64
46710;BME280;32442;51.514;-0.178;2022-10-31T06:14:35;101329.09;;;21.18;71.85
46710;BME280;32442;51.514;-0.178;2022-10-31T06:17:02;101336.69;;;21.17;72.26
46710;BME280;32442;51.514;-0.178;2022-10-31T06:19:29;101335.56;;;21.18;71.96
46710;BME280;32442;51.514;-0.178;2022-10-31T06:21:56;101336.41;;;21.19;72.00
46710;BME280;32442;51.514;-0.178;2022-10-31T06:24:22;101333.88;;;21.17;72.00
46710;BME280;32442;51.514;-0.178;2022-10-31T06:26:49;101329.09;;;21.18;72.02
46710;BME280;32442;51.514;-0.178;2022-10-31T06:29:16;101331.63;;;21.19;72.21
46710;BME280;32442;51.514;-0.178;2022-10-31T06:31:43;101336.94;;;21.21;71.68
46710;BME280;32442;51.514;-0.178;2022-10-31T06:34:10;101339.75;;;21.21;71.98
46710;BME280;32442;51.514;-0.178;2022-10-31T06:36:37;101329.88;;;21.23;71.50
46710;BME280;32442;51.514;-0.178;2022-10-31T06:39:04;101326.16;;;21.28;71.82
46710;BME280;32442;51.514;-0.178;2022-10-31T06:41:30;101334.81;;;21.32;72.42
46710;BME280;32442;51.514;-0.178;2022-10-31T06:43:57;101320.97;;;21.35;72.67
46710;BME280;32442;51.514;-0.178;2022-10-31T06:46:30;101330.50;;;21.39;72.63
46710;BME280;32442;51.514;-0.178;2022-10-31T06:48:56;101325.09;;;21.43;72.60
46710;BME280;32442;51.514;-0.178;2022-10-31T06:51:23;101326.97;;;21.47;72.77
46710;BME280;32442;51.514;-0.178;2022-10-31T06:53:50;101328.03;;;21.51;73.06
46710;BME280;32442;51.514;-0.178;2022-10-31T06:56:17;101319.19;;;21.58;73.31
46710;BME280;32442;51.514;-0.178;2022-10-31T06:58:44;101328.38;;;21.63;73.26
46710;BME280;32442;51.514;-0.178;2022-10-31T07:01:11;101329.97;;;21.69;73.04
46710;BME280;32442;51.514;-0.178;2022-10-31T07:03:38;101320.63;;;21.74;73.04
46710;BME280;32442;51.514;-0.178;2022-10-31T07:06:05;101319.69;;;21.79;73.48
46710;BME280;32442;51.514;-0.178;2022-10-31T07:08:32;101315.13;;;21.83;73.29
46710;BME280;32442;51.514;-0.178;2022-10-31T07:10:59;101315.88;;;21.88;73.12
46710;BME280;32442;51.514;-0.178;2022-10-31T07:13:26;101312.16;;;21.93;73.01
46710;BME280;32442;51.514;-0.178;2022-10-31T07:15:53;101311.53;;;21.96;72.78
46710;BME280;32442;51.514;-0.178;2022-10-31T07:18:21;101319.88;;;22.01;72.96
46710;BME280;32442;51.514;-0.178;2022-10-31T07:20:48;101313.63;;;22.04;73.37
46710;BME280;32442;51.514;-0.178;2022-10-31T07:23:15;101311.06;;;22.07;72.62
46710;BME280;32442;51.514;-0.178;2022-10-31T07:25:42;101316.91;;;22.11;72.02
46710;BME280;32442;51.514;-0.178;2022-10-31T07:28:09;101308.97;;;22.13;71.68
46710;BME280;32442;51.514;-0.178;2022-10-31T07:30:36;101309.50;;;22.15;71.17
46710;BME280;32442;51.514;-0.178;2022-10-31T07:33:04;101310.22;;;22.07;66.52
46710;BME280;32442;51.514;-0.178;2022-10-31T07:35:31;101315.25;;;21.91;65.30
46710;BME280;32442;51.514;-0.178;2022-10-31T07:38:05;101312.72;;;21.90;63.00
46710;BME280;32442;51.514;-0.178;2022-10-31T07:40:33;101305.94;;;21.77;61.98
46710;BME280;32442;51.514;-0.178;2022-10-31T07:42:59;101311.44;;;21.68;61.15
46710;BME280;32442;51.514;-0.178;2022-10-31T07:45:26;101305.06;;;21.63;60.79
46710;BME280;32442;51.514;-0.178;2022-10-31T07:47:53;101310.16;;;21.61;61.13
46710;BME280;32442;51.514;-0.178;2022-10-31T07:50:21;101304.09;;;21.54;60.50
46710;BME280;32442;51.514;-0.178;2022-10-31T07:52:57;101305.63;;;21.46;60.51
46710;BME280;32442;51.514;-0.178;2022-10-31T07:55:24;101304.88;;;21.41;60.75
46710;BME280;32442;51.514;-0.178;2022-10-31T08:00:21;101298.25;;;21.32;60.66
46710;BME280;32442;51.514;-0.178;2022-10-31T08:02:48;101297.00;;;21.24;60.46
46710;BME280;32442;51.514;-0.178;2022-10-31T08:05:15;101304.88;;;21.22;60.92
46710;BME280;32442;51.514;-0.178;2022-10-31T08:07:42;101303.31;;;21.16;60.82
46710;BME280;32442;51.514;-0.178;2022-10-31T08:10:09;101304.47;;;21.10;61.17
46710;BME280;32442;51.514;-0.178;2022-10-31T08:12:36;101298.94;;;21.05;61.02
46710;BME280;32442;51.514;-0.178;2022-10-31T08:15:02;101302.94;;;20.99;61.46
46710;BME280;32442;51.514;-0.178;2022-10-31T08:17:29;101302.44;;;20.97;61.33
46710;BME280;32442;51.514;-0.178;2022-10-31T08:19:57;101305.91;;;20.89;61.65
46710;BME280;32442;51.514;-0.178;2022-10-31T08:22:24;101296.66;;;20.88;61.73
46710;BME280;32442;51.514;-0.178;2022-10-31T08:24:51;101296.50;;;20.98;62.36
46710;BME280;32442;51.514;-0.178;2022-10-31T08:27:18;101299.75;;;21.05;63.49
46710;BME280;32442;51.514;-0.178;2022-10-31T08:29:45;101297.41;;;21.12;63.57
46710;BME280;32442;51.514;-0.178;2022-10-31T08:32:12;101289.28;;;21.11;63.74
46710;BME280;32442;51.514;-0.178;2022-10-31T08:34:39;101298.28;;;21.13;63.77
46710;BME280;32442;51.514;-0.178;2022-10-31T08:37:06;101292.34;;;21.14;63.67
46710;BME280;32442;51.514;-0.178;2022-10-31T08:39:33;101297.97;;;21.14;63.87
46710;BME280;32442;51.514;-0.178;2022-10-31T08:42:00;101289.25;;;21.16;63.76
46710;BME280;32442;51.514;-0.178;2022-10-31T08:44:27;101286.97;;;21.18;63.83
46710;BME280;32442;51.514;-0.178;2022-10-31T08:46:54;101281.03;;;21.19;63.75
46710;BME280;32442;51.514;-0.178;2022-10-31T08:49:21;101275.41;;;21.19;63.82
46710;BME280;32442;51.514;-0.178;2022-10-31T08:51:48;101276.25;;;21.20;64.34
46710;BME280;32442;51.514;-0.178;2022-10-31T08:54:15;101268.97;;;21.19;64.21
46710;BME280;32442;51.514;-0.178;2022-10-31T08:56:42;101266.16;;;21.19;64.26
46710;BME280;32442;51.514;-0.178;2022-10-31T08:59:09;101267.00;;;21.19;64.28
46710;BME280;32442;51.514;-0.178;2022-10-31T09:01:36;101269.81;;;21.19;64.42
46710;BME280;32442;51.514;-0.178;2022-10-31T09:04:03;101274.28;;;21.20;64.28
46710;BME280;32442;51.514;-0.178;2022-10-31T09:06:30;101266.38;;;21.22;64.40
46710;BME280;32442;51.514;-0.178;2022-10-31T09:08:57;101269.19;;;21.22;64.47
46710;BME280;32442;51.514;-0.178;2022-10-31T09:11:24;101267.22;;;21.23;64.65
46710;BME280;32442;51.514;-0.178;2022-10-31T09:13:51;101259.63;;;21.23;64.17
46710;BME280;32442;51.514;-0.178;2022-10-31T09:16:19;101266.59;;;21.26;64.60
46710;BME280;32442;51.514;-0.178;2022-10-31T09:18:46;101250.88;;;21.25;64.31
46710;BME280;32442;51.514;-0.178;2022-10-31T09:21:13;101253.06;;;21.28;64.21
46710;BME280;32442;51.514;-0.178;2022-10-31T09:23:40;101237.56;;;21.30;64.18
46710;BME280;32442;51.514;-0.178;2022-10-31T09:26:07;101238.94;;;21.33;64.06
46710;BME280;32442;51.514;-0.178;2022-10-31T09:28:34;101247.38;;;21.33;64.05
46710;BME280;32442;51.514;-0.178;2022-10-31T09:31:01;101249.06;;;21.34;64.39
46710;BME280;32442;51.514;-0.178;2022-10-31T09:33:29;101241.97;;;21.37;63.91
46710;BME280;32442;51.514;-0.178;2022-10-31T09:35:57;101243.66;;;21.38;64.31
46710;BME280;32442;51.514;-0.178;2022-10-31T09:38:24;101238.88;;;21.38;64.11
46710;BME280;32442;51.514;-0.178;2022-10-31T09:50:48;101216.88;;;21.40;64.15
46710;BME280;32442;51.514;-0.178;2022-10-31T09:55:47;101206.47;;;21.41;63.89
46710;BME280;32442;51.514;-0.178;2022-10-31T09:58:18;101212.09;;;21.41;63.66
46710;BME280;32442;51.514;-0.178;2022-10-31T10:00:47;101206.19;;;21.42;63.93
46710;BME280;32442;51.514;-0.178;2022-10-31T10:05:45;101210.66;;;21.43;64.06
46710;BME280;32442;51.514;-0.178;2022-10-31T10:20:43;101185.38;;;21.43;63.75
46710;BME280;32442;51.514;-0.178;2022-10-31T10:25:43;101177.78;;;21.44;63.42
46710;BME280;32442;51.514;-0.178;2022-10-31T10:33:12;101181.19;;;21.41;63.37
46710;BME280;32442;51.514;-0.178;2022-10-31T10:40:39;101176.41;;;21.41;63.40
46710;BME280;32442;51.514;-0.178;2022-10-31T10:45:38;101177.22;;;21.42;63.63
46710;BME280;32442;51.514;-0.178;2022-10-31T10:50:41;101176.09;;;21.43;63.18
46710;BME280;32442;51.514;-0.178;2022-10-31T10:55:37;101156.72;;;21.41;63.36
46710;BME280;32442;51.514;-0.178;2022-10-31T10:58:07;101151.94;;;21.42;63.61
46710;BME280;32442;51.514;-0.178;2022-10-31T11:03:03;101141.53;;;21.42;63.42
46710;BME280;32442;51.514;-0.178;2022-10-31T11:08:01;101131.94;;;21.43;63.33
46710;BME280;32442;51.514;-0.178;2022-10-31T11:10:28;101121.84;;;21.42;63.12
46710;BME280;32442;51.514;-0.178;2022-10-31T11:15:26;101129.97;;;21.44;63.44
46710;BME280;32442;51.514;-0.178;2022-10-31T11:17:54;101111.44;;;21.43;63.28
46710;BME280;32442;51.514;-0.178;2022-10-31T11:23:00;101105.28;;;21.41;62.94
46710;BME280;32442;51.514;-0.178;2022-10-31T11:25:27;101100.50;;;21.41;63.14
46710;BME280;32442;51.514;-0.178;2022-10-31T11:30:24;101102.25;;;21.37;63.08
46710;BME280;32442;51.514;-0.178;2022-10-31T11:32:51;101093.53;;;21.39;63.29
46710;BME280;32442;51.514;-0.178;2022-10-31T11:35:19;101085.94;;;21.39;62.86
46710;BME280;32442;51.514;-0.178;2022-10-31T11:37:48;101083.44;;;21.38;63.26
46710;BME280;32442;51.514;-0.178;2022-10-31T11:42:47;101080.91;;;21.36;63.14
46710;BME280;32442;51.514;-0.178;2022-10-31T11:47:44;101071.97;;;21.34;63.28
46710;BME280;32442;51.514;-0.178;2022-10-31T11:50:18;101063.00;;;21.32;62.81
46710;BME280;32442;51.514;-0.178;2022-10-31T11:52:46;101064.06;;;21.36;61.51
46710;BME280;32442;51.514;-0.178;2022-10-31T11:55:15;101055.13;;;21.34;60.97
46710;BME280;32442;51.514;-0.178;2022-10-31T11:57:44;101053.94;;;21.35;61.06
46710;BME280;32442;51.514;-0.178;2022-10-31T12:00:20;101044.16;;;21.33;60.88
46710;BME280;32442;51.514;-0.178;2022-10-31T12:02:47;101034.41;;;21.30;60.15
46710;BME280;32442;51.514;-0.178;2022-10-31T12:05:18;101038.00;;;21.30;60.44
46710;BME280;32442;51.514;-0.178;2022-10-31T12:07:47;101025.44;;;21.28;60.90
46710;BME280;32442;51.514;-0.178;2022-10-31T12:10:15;101023.75;;;21.27;61.44
46710;BME280;32442;51.514;-0.178;2022-10-31T12:15:23;101014.81;;;21.25;61.59
46710;BME280;32442;51.514;-0.178;2022-10-31T12:20:33;101002.56;;;21.21;61.65
46710;BME280;32442;51.514;-0.178;2022-10-31T12:23:07;101006.16;;;21.21;61.89
46710;BME280;32442;51.514;-0.178;2022-10-31T12:25:39;101003.34;;;21.21;61.94
46710;BME280;32442;51.514;-0.178;2022-10-31T12:28:24;100994.63;;;21.23;61.79
46710;BME280;32442;51.514;-0.178;2022-10-31T12:31:10;100984.50;;;21.22;61.70
46710;BME280;32442;51.514;-0.178;2022-10-31T12:33:50;100969.34;;;21.23;62.02
46710;BME280;32442;51.514;-0.178;2022-10-31T12:36:26;100962.03;;;21.22;62.07
46710;BME280;32442;51.514;-0.178;2022-10-31T12:44:03;100946.94;;;21.18;62.33
46710;BME280;32442;51.514;-0.178;2022-10-31T12:46:36;100943.31;;;21.17;62.19
46710;BME280;32442;51.514;-0.178;2022-10-31T12:54:17;100929.59;;;21.16;62.32
46710;BME280;32442;51.514;-0.178;2022-10-31T12:56:51;100924.47;;;21.18;62.49
46710;BME280;32442;51.514;-0.178;2022-10-31T12:59:24;100914.91;;;21.19;62.32
46710;BME280;32442;51.514;-0.178;2022-10-31T13:01:56;100911.78;;;21.20;62.09
46710;BME280;32442;51.514;-0.178;2022-10-31T13:07:01;100900.66;;;21.15;62.28
46710;BME280;32442;51.514;-0.178;2022-10-31T13:09:32;100896.72;;;21.16;62.56
46710;BME280;32442;51.514;-0.178;2022-10-31T13:12:02;100888.59;;;21.15;62.54
46710;BME280;32442;51.514;-0.178;2022-10-31T13:14:36;100869.22;;;21.13;62.48
46710;BME280;32442;51.514;-0.178;2022-10-31T13:17:05;100868.38;;;21.13;62.51
46710;BME280;32442;51.514;-0.178;2022-10-31T13:19:34;100868.38;;;21.13;62.65
46710;BME280;32442;51.514;-0.178;2022-10-31T13:22:07;100855.78;;;21.10;62.67
46710;BME280;32442;51.514;-0.178;2022-10-31T13:24:38;100843.19;;;21.08;62.51
46710;BME280;32442;51.514;-0.178;2022-10-31T13:27:21;100842.03;;;21.09;62.60
46710;BME280;32442;51.514;-0.178;2022-10-31T13:32:16;100834.75;;;21.08;62.46
46710;BME280;32442;51.514;-0.178;2022-10-31T13:34:45;100812.91;;;21.05;62.70
46710;BME280;32442;51.514;-0.178;2022-10-31T13:39:55;100804.50;;;21.05;62.75
46710;BME280;32442;51.514;-0.178;2022-10-31T13:47:37;100785.97;;;21.04;62.65
46710;BME280;32442;51.514;-0.178;2022-10-31T13:50:05;100779.03;;;21.01;62.91
46710;BME280;32442;51.514;-0.178;2022-10-31T13:52:33;100770.59;;;21.01;62.58
46710;BME280;32442;51.514;-0.178;2022-10-31T13:55:00;100766.63;;;21.02;62.60
46710;BME280;32442;51.514;-0.178;2022-10-31T14:00:14;100760.19;;;21.02;63.00
46710;BME280;32442;51.514;-0.178;2022-10-31T14:02:50;100755.19;;;20.99;62.94
46710;BME280;32442;51.514;-0.178;2022-10-31T14:07:45;100749.25;;;21.00;62.93
46710;BME280;32442;51.514;-0.178;2022-10-31T14:12:49;100741.13;;;20.99;62.67
46710;BME280;32442;51.514;-0.178;2022-10-31T14:17:46;100723.47;;;20.98;62.87
46710;BME280;32442;51.514;-0.178;2022-10-31T14:22:41;100716.00;;;20.94;63.17
46710;BME280;32442;51.514;-0.178;2022-10-31T14:27:45;100702.75;;;20.94;63.02
46710;BME280;32442;51.514;-0.178;2022-10-31T14:30:14;100706.41;;;20.95;62.99
46710;BME280;32442;51.514;-0.178;2022-10-31T14:32:42;100694.69;;;20.93;63.03
46710;BME280;32442;51.514;-0.178;2022-10-31T14:35:12;100679.50;;;20.94;63.27
46710;BME280;32442;51.514;-0.178;2022-10-31T14:52:49;100659.84;;;20.94;62.88
46710;BME280;32442;51.514;-0.178;2022-10-31T14:55:18;100650.88;;;20.92;62.98
46710;BME280;32442;51.514;-0.178;2022-10-31T14:57:49;100639.34;;;20.93;63.04
46710;BME280;32442;51.514;-0.178;2022-10-31T15:00:19;100628.41;;;20.92;62.92
46710;BME280;32442;51.514;-0.178;2022-10-31T15:05:23;100605.13;;;20.91;62.88
46710;BME280;32442;51.514;-0.178;2022-10-31T15:07:52;100605.13;;;20.91;63.15
46710;BME280;32442;51.514;-0.178;2022-10-31T15:10:21;100608.22;;;20.90;63.24
46710;BME280;32442;51.514;-0.178;2022-10-31T15:12:49;100603.78;;;20.89;62.82
46710;BME280;32442;51.514;-0.178;2022-10-31T15:15:18;100602.63;;;20.90;63.15
46710;BME280;32442;51.514;-0.178;2022-10-31T15:17:49;100588.91;;;20.88;63.17
46710;BME280;32442;51.514;-0.178;2022-10-31T15:20:19;100588.09;;;20.88;63.03
46710;BME280;32442;51.514;-0.178;2022-10-31T15:22:47;100571.22;;;20.88;62.85
46710;BME280;32442;51.514;-0.178;2022-10-31T15:25:17;100570.72;;;20.85;63.08
46710;BME280;32442;51.514;-0.178;2022-10-31T15:27:45;100568.25;;;20.84;63.09
46710;BME280;32442;51.514;-0.178;2022-10-31T15:30:16;100557.84;;;20.84;63.38
46710;BME280;32442;51.514;-0.178;2022-10-31T15:32:44;100543.47;;;20.86;63.18
46710;BME280;32442;51.514;-0.178;2022-10-31T15:35:27;100554.69;;;20.86;63.15
46710;BME280;32442;51.514;-0.178;2022-10-31T15:37:54;100544.28;;;20.86;63.17
46710;BME280;32442;51.514;-0.178;2022-10-31T15:40:22;100531.09;;;20.87;63.24